This is the latest recevied weather packets stored in our database for station/object ZS2JO. If no packets are shown the sender has not sent any weather packets the latest 1 day(s).
| Time | Temp. | Humidity | Pressure | Rain* | Wind** | Luminosity | Snow |
|---|---|---|---|---|---|---|---|
| 1778055427 | 12.78° C | 99% | 1007.6 hPa | 2.29 mm | - | 92 W/m² | - |
| 1778053912 | 13.33° C | 99% | 1007.5 hPa | 10.67 mm | - | 22 W/m² | - |
| 1778053611 | 13.33° C | 99% | 1008.1 hPa | 13.21 mm | - | 19 W/m² | - |
| 1778052399 | 13.33° C | 99% | 1009.2 hPa | 8.89 mm | - | 8 W/m² | - |
| 1778052097 | 13.33° C | 99% | 1009.1 hPa | 7.11 mm | - | 8 W/m² | - |
| 1778051794 | 13.33° C | 99% | 1009.6 hPa | 4.32 mm | - | 7 W/m² | - |
| 1778051492 | 13.33° C | 99% | 1009.4 hPa | 3.56 mm | - | 6 W/m² | - |
| 1778050584 | 13.89° C | 99% | 1008.2 hPa | 4.32 mm | - | 6 W/m² | - |
| 1778049977 | 14.44° C | 99% | 1008.2 hPa | 1.78 mm | - | 4 W/m² | - |
| 1778049371 | 14.44° C | 99% | 1008 hPa | 2.29 mm | - | 4 W/m² | - |
| 1778048463 | 14.44° C | 99% | 1008.2 hPa | 1.27 mm | - | 1 W/m² | - |
| 1778047555 | 14.44° C | 99% | 1006.6 hPa | 0.51 mm | - | 3 W/m² | - |
| 1778046949 | 14.44° C | 99% | 1007 hPa | 3.05 mm | - | 2 W/m² | - |
| 1778046342 | 13.89° C | 99% | 1007.5 hPa | 7.11 mm | - | 1 W/m² | - |
| 1778046038 | 13.89° C | 99% | 1008.1 hPa | 6.1 mm | - | 1 W/m² | - |
| 1778044830 | 13.89° C | 99% | 1008.1 hPa | 0.51 mm | - | 1 W/m² | - |
| 1778043619 | 13.89° C | 99% | 1007.9 hPa | 0 mm | - | 0 W/m² | - |
| 1778043315 | 13.89° C | 99% | 1007.9 hPa | 0 mm | - | 0 W/m² | - |
| 1778043012 | 13.89° C | 99% | 1007.6 hPa | 0 mm | - | 0 W/m² | - |
| 1778042710 | 13.89° C | 99% | 1007.8 hPa | 0 mm | - | 0 W/m² | - |
| 1778041501 | 13.89° C | 99% | 1006.9 hPa | 0 mm | - | 0 W/m² | - |
| 1778041198 | 13.89° C | 99% | 1006.9 hPa | 0 mm | - | 0 W/m² | - |
| 1778040896 | 13.89° C | 99% | 1007 hPa | 0 mm | - | 0 W/m² | - |
| 1778040593 | 13.89° C | 99% | 1006.8 hPa | 0 mm | - | 0 W/m² | - |
| 1778040291 | 13.89° C | 99% | 1007 hPa | 0 mm | - | 0 W/m² | - |
* Rain latest hour (hover to see other rain measurements)
** Current wind speed in m/s (hover to see current wind gust speed)